No particular awareness of the weather is required.    There are no Weather-warnings


Meteo18 Weather Cam more information Meteo18 Weather Cam


Thunder radar more information blitzortung!


Rain radar more information rain snow radar


Visit our other weather sites:

Template documentation
and downloads

And another site



Weather Underground History page Text

Daily Summary for March 2, 2018 Units:  Both    English   Metric
« Previous Day
Next Day »
Daily Weekly Monthly Yearly Custom
  High: Low: Average:
Temperature: TemperatureC °F /  -17.8 °C 1.4 °F /  -17 °C 5.9 °F /  -14.5 °C
Dew Point: DewpointC °F /  -17.8 °C -1.6 °F /  -18.7 °C 2.5 °F /  -16.4 °C
Humidity: Humidity % 58 % 79 %
Wind Speed: WindSpeedKMH mph /  0 km/h - 8.6 mph /  13.8 km/h
Wind Gust: WindSpeedGustKMH mph /  0 km/h - -
Wind:- - SSW
Pressure: PressurehPa in /  0 hPa 985.7 in /  33375.8 hPa -
Precipitation: 7.1 in /  180.34 mm    
Historical Graphs
 
 
Tabular Data for March 2, 2018
Time Temperature Dew Point Pressure Wind Wind Speed Wind Gust Humidity Rainfall Rate (Hourly)
TemperatureC °F /  -17.8 °C DewpointC °F /  -17.8 °C PressurehPa in /  0 hPa Calm     Humidity % HourlyPrecipMM in /  0 mm
00:00 6.2 °F /  -14.3 °C 3.5 °F /  -15.8 °C 986.3 in /  33396.1 hPa East 4.7 mph /  7.6 km/h 17.7 mph /  28.5 km/h 83 % 0.0 in /  0 mm
00:06 6.3 °F /  -14.3 °C 3.6 °F /  -15.8 °C 986.3 in /  33396.1 hPa East 7.9 mph /  12.7 km/h 12.9 mph /  20.8 km/h 83 % 0.0 in /  0 mm
00:12 6.2 °F /  -14.3 °C 3.5 °F /  -15.8 °C 986.3 in /  33396.1 hPa ESE 1.4 mph /  2.3 km/h 12.9 mph /  20.8 km/h 83 % 0.0 in /  0 mm
00:18 6.2 °F /  -14.3 °C 3.5 °F /  -15.8 °C 986.3 in /  33396.1 hPa SE 6.4 mph /  10.3 km/h 11.3 mph /  18.2 km/h 83 % 0.0 in /  0 mm
00:24 6.2 °F /  -14.3 °C 3.5 °F /  -15.8 °C 986.0 in /  33386 hPa ESE 4.7 mph /  7.6 km/h 11.3 mph /  18.2 km/h 83 % 0.0 in /  0 mm
00:30 6.1 °F /  -14.4 °C 3.4 °F /  -15.9 °C 986.3 in /  33396.1 hPa East 6.4 mph /  10.3 km/h 6.4 mph /  10.3 km/h 83 % 0.0 in /  0 mm
00:36 5.9 °F /  -14.5 °C 3.4 °F /  -15.9 °C 986.3 in /  33396.1 hPa East 1.4 mph /  2.3 km/h 6.4 mph /  10.3 km/h 84 % 0.0 in /  0 mm
00:42 5.7 °F /  -14.6 °C 3.2 °F /  -16 °C 986.3 in /  33396.1 hPa ESE 3.2 mph /  5.1 km/h 9.7 mph /  15.6 km/h 84 % 0.0 in /  0 mm
00:48 5.7 °F /  -14.6 °C 3.4 °F /  -15.9 °C 986.3 in /  33396.1 hPa East 3.2 mph /  5.1 km/h 6.4 mph /  10.3 km/h 85 % 0.0 in /  0 mm
00:54 5.7 °F /  -14.6 °C 3.4 °F /  -15.9 °C 986.3 in /  33396.1 hPa East 3.2 mph /  5.1 km/h 6.4 mph /  10.3 km/h 85 % 0.0 in /  0 mm
01:00 5.7 °F /  -14.6 °C 3.4 °F /  -15.9 °C 986.3 in /  33396.1 hPa East 4.7 mph /  7.6 km/h 11.3 mph /  18.2 km/h 85 % 0.0 in /  0 mm
01:06 5.9 °F /  -14.5 °C 3.6 °F /  -15.8 °C 986.0 in /  33386 hPa East 4.7 mph /  7.6 km/h 8.0 mph /  12.9 km/h 85 % 0.0 in /  0 mm
01:12 5.9 °F /  -14.5 °C 3.6 °F /  -15.8 °C 986.3 in /  33396.1 hPa SE 4.7 mph /  7.6 km/h 11.3 mph /  18.2 km/h 85 % 0.0 in /  0 mm
01:18 6.0 °F /  -14.4 °C 3.7 °F /  -15.7 °C 986.3 in /  33396.1 hPa East 4.7 mph /  7.6 km/h 9.7 mph /  15.6 km/h 85 % 0.0 in /  0 mm
01:24 6.2 °F /  -14.3 °C 3.9 °F /  -15.6 °C 986.0 in /  33386 hPa East 9.7 mph /  15.6 km/h 11.3 mph /  18.2 km/h 85 % 0.0 in /  0 mm
01:30 6.3 °F /  -14.3 °C 3.8 °F /  -15.7 °C 986.0 in /  33386 hPa East 1.4 mph /  2.3 km/h 4.8 mph /  7.7 km/h 84 % 0.0 in /  0 mm
01:36 6.3 °F /  -14.3 °C 3.8 °F /  -15.7 °C 986.0 in /  33386 hPa SE 4.7 mph /  7.6 km/h 6.4 mph /  10.3 km/h 84 % 0.0 in /  0 mm
01:43 6.2 °F /  -14.3 °C 3.9 °F /  -15.6 °C 986.0 in /  33386 hPa ESE 1.4 mph /  2.3 km/h 8.0 mph /  12.9 km/h 85 % 0.0 in /  0 mm
01:49 6.2 °F /  -14.3 °C 3.9 °F /  -15.6 °C 986.0 in /  33386 hPa SE 3.2 mph /  5.1 km/h 8.0 mph /  12.9 km/h 85 % 0.0 in /  0 mm
01:55 6.2 °F /  -14.3 °C 3.9 °F /  -15.6 °C 985.7 in /  33375.8 hPa SE 3.2 mph /  5.1 km/h 8.0 mph /  12.9 km/h 85 % 0.0 in /  0 mm
02:01 6.2 °F /  -14.3 °C 3.9 °F /  -15.6 °C 986.0 in /  33386 hPa SE 4.7 mph /  7.6 km/h 8.0 mph /  12.9 km/h 85 % 0.0 in /  0 mm
02:07 6.3 °F /  -14.3 °C 4.0 °F /  -15.6 °C 985.7 in /  33375.8 hPa SSE 3.2 mph /  5.1 km/h 8.0 mph /  12.9 km/h 85 % 0.0 in /  0 mm
02:13 6.4 °F /  -14.2 °C 4.1 °F /  -15.5 °C 985.7 in /  33375.8 hPa SE 9.7 mph /  15.6 km/h 9.7 mph /  15.6 km/h 85 % 0.0 in /  0 mm
02:19 6.6 °F /  -14.1 °C 4.1 °F /  -15.5 °C 985.7 in /  33375.8 hPa ESE 6.4 mph /  10.3 km/h 9.7 mph /  15.6 km/h 84 % 0.0 in /  0 mm
02:25 6.7 °F /  -14.1 °C 4.2 °F /  -15.4 °C 985.7 in /  33375.8 hPa SE 1.4 mph /  2.3 km/h 14.5 mph /  23.3 km/h 84 % 0.0 in /  0 mm
02:31 6.7 °F /  -14.1 °C 4.2 °F /  -15.4 °C 986.0 in /  33386 hPa SE 9.7 mph /  15.6 km/h 11.3 mph /  18.2 km/h 84 % 0.0 in /  0 mm
02:37 6.7 °F /  -14.1 °C 4.2 °F /  -15.4 °C 986.0 in /  33386 hPa SE 4.7 mph /  7.6 km/h 9.7 mph /  15.6 km/h 84 % 0.0 in /  0 mm
02:43 6.7 °F /  -14.1 °C 4.2 °F /  -15.4 °C 986.0 in /  33386 hPa SE 6.4 mph /  10.3 km/h 11.3 mph /  18.2 km/h 84 % 0.0 in /  0 mm
02:49 6.7 °F /  -14.1 °C 4.2 °F /  -15.4 °C 986.0 in /  33386 hPa SE 1.4 mph /  2.3 km/h 6.4 mph /  10.3 km/h 84 % 0.0 in /  0 mm
02:55 6.6 °F /  -14.1 °C 4.1 °F /  -15.5 °C 986.0 in /  33386 hPa SSE 1.4 mph /  2.3 km/h 6.4 mph /  10.3 km/h 84 % 0.0 in /  0 mm
03:01 6.5 °F /  -14.2 °C 4.2 °F /  -15.4 °C 986.0 in /  33386 hPa Calm   8.0 mph /  12.9 km/h 85 % 0.0 in /  0 mm
03:07 6.4 °F /  -14.2 °C 4.2 °F /  -15.4 °C 986.0 in /  33386 hPa Calm   4.8 mph /  7.7 km/h 86 % 0.0 in /  0 mm
03:13 6.3 °F /  -14.3 °C 4.3 °F /  -15.4 °C 986.0 in /  33386 hPa SE 1.4 mph /  2.3 km/h 1.6 mph /  2.6 km/h 87 % 0.3 in /  7.62 mm
03:19 6.2 °F /  -14.3 °C 4.2 °F /  -15.4 °C 985.7 in /  33375.8 hPa Calm   3.2 mph /  5.1 km/h 87 % 0.3 in /  7.62 mm
03:25 6.1 °F /  -14.4 °C 4.3 °F /  -15.4 °C 985.7 in /  33375.8 hPa Calm   1.6 mph /  2.6 km/h 88 % 0.5 in /  12.7 mm
03:31 6.1 °F /  -14.4 °C 4.3 °F /  -15.4 °C 985.7 in /  33375.8 hPa Calm     88 % 0.5 in /  12.7 mm
03:37 6.0 °F /  -14.4 °C 4.3 °F /  -15.4 °C 985.7 in /  33375.8 hPa Calm     89 % 0.5 in /  12.7 mm
03:43 6.0 °F /  -14.4 °C 4.3 °F /  -15.4 °C 985.7 in /  33375.8 hPa Calm   1.6 mph /  2.6 km/h 89 % 0.8 in /  20.32 mm
03:49 6.1 °F /  -14.4 °C 4.4 °F /  -15.3 °C 985.7 in /  33375.8 hPa Calm   1.6 mph /  2.6 km/h 89 % 1.0 in /  25.4 mm
03:55 6.1 °F /  -14.4 °C 4.4 °F /  -15.3 °C 985.7 in /  33375.8 hPa Calm   1.6 mph /  2.6 km/h 89 % 1.3 in /  33.02 mm
04:01 6.0 °F /  -14.4 °C 4.5 °F /  -15.3 °C 986.0 in /  33386 hPa SE 4.7 mph /  7.6 km/h 6.4 mph /  10.3 km/h 90 % 1.5 in /  38.1 mm
04:07 6.0 °F /  -14.4 °C 4.5 °F /  -15.3 °C 985.7 in /  33375.8 hPa ESE 1.4 mph /  2.3 km/h 3.2 mph /  5.1 km/h 90 % 1.5 in /  38.1 mm
04:13 5.9 °F /  -14.5 °C 4.5 °F /  -15.3 °C 985.7 in /  33375.8 hPa Calm   4.8 mph /  7.7 km/h 91 % 1.5 in /  38.1 mm
04:19 5.7 °F /  -14.6 °C 4.3 °F /  -15.4 °C 985.7 in /  33375.8 hPa ESE 1.4 mph /  2.3 km/h 3.2 mph /  5.1 km/h 91 % 1.8 in /  45.72 mm
04:25 5.7 °F /  -14.6 °C 4.5 °F /  -15.3 °C 986.0 in /  33386 hPa ESE 1.4 mph /  2.3 km/h 3.2 mph /  5.1 km/h 92 % 1.8 in /  45.72 mm
04:31 5.6 °F /  -14.7 °C 4.4 °F /  -15.3 °C 986.0 in /  33386 hPa Calm   4.8 mph /  7.7 km/h 92 % 2.3 in /  58.42 mm
04:37 5.6 °F /  -14.7 °C 4.6 °F /  -15.2 °C 985.7 in /  33375.8 hPa ESE 1.4 mph /  2.3 km/h 3.2 mph /  5.1 km/h 93 % 2.3 in /  58.42 mm
04:43 5.4 °F /  -14.8 °C 4.4 °F /  -15.3 °C 986.0 in /  33386 hPa Calm   3.2 mph /  5.1 km/h 93 % 2.3 in /  58.42 mm
04:49 5.3 °F /  -14.8 °C 4.3 °F /  -15.4 °C 986.0 in /  33386 hPa SE 3.2 mph /  5.1 km/h 3.2 mph /  5.1 km/h 93 % 2.3 in /  58.42 mm
04:55 5.4 °F /  -14.8 °C 4.5 °F /  -15.3 °C 986.0 in /  33386 hPa Calm   4.8 mph /  7.7 km/h 94 % 2.3 in /  58.42 mm
05:01 5.4 °F /  -14.8 °C 4.5 °F /  -15.3 °C 986.0 in /  33386 hPa Calm   3.2 mph /  5.1 km/h 94 % 2.3 in /  58.42 mm
05:07 5.4 °F /  -14.8 °C 4.5 °F /  -15.3 °C 986.0 in /  33386 hPa South 3.2 mph /  5.1 km/h 4.8 mph /  7.7 km/h 94 % 2.3 in /  58.42 mm
05:13 5.4 °F /  -14.8 °C 4.5 °F /  -15.3 °C 986.0 in /  33386 hPa Calm   3.2 mph /  5.1 km/h 94 % 2.3 in /  58.42 mm
05:19 5.3 °F /  -14.8 °C 4.4 °F /  -15.3 °C 986.0 in /  33386 hPa SSE 1.4 mph /  2.3 km/h 1.6 mph /  2.6 km/h 94 % 2.3 in /  58.42 mm
05:25 5.2 °F /  -14.9 °C 4.3 °F /  -15.4 °C 986.0 in /  33386 hPa SSW 1.4 mph /  2.3 km/h 3.2 mph /  5.1 km/h 94 % 2.0 in /  50.8 mm
05:31 5.2 °F /  -14.9 °C 4.5 °F /  -15.3 °C 986.0 in /  33386 hPa South 4.7 mph /  7.6 km/h 6.4 mph /  10.3 km/h 95 % 1.8 in /  45.72 mm
05:37 5.2 °F /  -14.9 °C 4.5 °F /  -15.3 °C 986.3 in /  33396.1 hPa SE 1.4 mph /  2.3 km/h 11.3 mph /  18.2 km/h 95 % 1.5 in /  38.1 mm
05:43 5.2 °F /  -14.9 °C 4.5 °F /  -15.3 °C 986.3 in /  33396.1 hPa SE 6.4 mph /  10.3 km/h 8.0 mph /  12.9 km/h 95 % 1.3 in /  33.02 mm
05:49 5.2 °F /  -14.9 °C 4.5 °F /  -15.3 °C 986.3 in /  33396.1 hPa SSE 4.7 mph /  7.6 km/h 6.4 mph /  10.3 km/h 95 % 1.3 in /  33.02 mm
05:55 5.1 °F /  -14.9 °C 4.4 °F /  -15.3 °C 986.3 in /  33396.1 hPa SE 1.4 mph /  2.3 km/h 6.4 mph /  10.3 km/h 95 % 1.3 in /  33.02 mm
06:01 5.1 °F /  -14.9 °C 4.4 °F /  -15.3 °C 986.3 in /  33396.1 hPa SE 1.4 mph /  2.3 km/h 8.0 mph /  12.9 km/h 95 % 1.3 in /  33.02 mm
06:07 4.9 °F /  -15.1 °C 4.2 °F /  -15.4 °C 986.3 in /  33396.1 hPa SSE 1.4 mph /  2.3 km/h 4.8 mph /  7.7 km/h 95 % 1.3 in /  33.02 mm
06:13 4.9 °F /  -15.1 °C 4.2 °F /  -15.4 °C 986.3 in /  33396.1 hPa SSE 4.7 mph /  7.6 km/h 8.0 mph /  12.9 km/h 95 % 1.3 in /  33.02 mm
06:19 4.9 °F /  -15.1 °C 4.2 °F /  -15.4 °C 986.7 in /  33409.7 hPa South 3.2 mph /  5.1 km/h 9.7 mph /  15.6 km/h 95 % 1.0 in /  25.4 mm
06:25 4.8 °F /  -15.1 °C 4.1 °F /  -15.5 °C 986.7 in /  33409.7 hPa SSE 3.2 mph /  5.1 km/h 14.5 mph /  23.3 km/h 95 % 1.3 in /  33.02 mm
06:31 4.8 °F /  -15.1 °C 4.1 °F /  -15.5 °C 987.0 in /  33419.8 hPa SSW 6.4 mph /  10.3 km/h 12.9 mph /  20.8 km/h 95 % 1.3 in /  33.02 mm
06:37 4.7 °F /  -15.2 °C 4.0 °F /  -15.6 °C 987.0 in /  33419.8 hPa SSW 7.9 mph /  12.7 km/h 11.3 mph /  18.2 km/h 95 % 1.3 in /  33.02 mm
06:43 4.9 °F /  -15.1 °C 4.3 °F /  -15.4 °C 987.0 in /  33419.8 hPa SW 11.1 mph /  17.9 km/h 14.5 mph /  23.3 km/h 96 % 1.3 in /  33.02 mm
06:49 5.1 °F /  -14.9 °C 4.5 °F /  -15.3 °C 987.0 in /  33419.8 hPa SW 14.3 mph /  23 km/h 14.5 mph /  23.3 km/h 96 % 1.3 in /  33.02 mm
06:55 5.2 °F /  -14.9 °C 4.6 °F /  -15.2 °C 987.0 in /  33419.8 hPa SSW 7.9 mph /  12.7 km/h 19.3 mph /  31.1 km/h 96 % 1.0 in /  25.4 mm
07:01 5.5 °F /  -14.7 °C 4.9 °F /  -15.1 °C 987.4 in /  33433.4 hPa SW 11.1 mph /  17.9 km/h 16.1 mph /  25.9 km/h 96 % 1.3 in /  33.02 mm
07:07 5.7 °F /  -14.6 °C 5.1 °F /  -14.9 °C 987.4 in /  33433.4 hPa SSW 9.7 mph /  15.6 km/h 14.5 mph /  23.3 km/h 96 % 1.3 in /  33.02 mm
07:13 5.8 °F /  -14.6 °C 5.1 °F /  -14.9 °C 987.4 in /  33433.4 hPa WSW 9.7 mph /  15.6 km/h 16.1 mph /  25.9 km/h 95 % 1.0 in /  25.4 mm
07:19 5.8 °F /  -14.6 °C 5.1 °F /  -14.9 °C 987.4 in /  33433.4 hPa SSW 6.4 mph /  10.3 km/h 12.9 mph /  20.8 km/h 95 % 1.3 in /  33.02 mm
07:25 5.8 °F /  -14.6 °C 5.1 °F /  -14.9 °C 987.7 in /  33443.5 hPa SW 6.4 mph /  10.3 km/h 8.0 mph /  12.9 km/h 95 % 1.0 in /  25.4 mm
07:31 5.8 °F /  -14.6 °C 5.1 °F /  -14.9 °C 987.7 in /  33443.5 hPa South 7.9 mph /  12.7 km/h 11.3 mph /  18.2 km/h 95 % 1.0 in /  25.4 mm
07:37 5.7 °F /  -14.6 °C 5.0 °F /  -15 °C 987.7 in /  33443.5 hPa SSW 4.7 mph /  7.6 km/h 9.7 mph /  15.6 km/h 95 % 1.3 in /  33.02 mm
07:43 5.6 °F /  -14.7 °C 4.9 °F /  -15.1 °C 988.0 in /  33453.7 hPa SW 9.7 mph /  15.6 km/h 14.5 mph /  23.3 km/h 95 % 1.3 in /  33.02 mm
07:49 5.6 °F /  -14.7 °C 4.9 °F /  -15.1 °C 988.0 in /  33453.7 hPa SW 7.9 mph /  12.7 km/h 9.7 mph /  15.6 km/h 95 % 1.0 in /  25.4 mm
07:55 5.7 °F /  -14.6 °C 5.1 °F /  -14.9 °C 988.0 in /  33453.7 hPa SSW 7.9 mph /  12.7 km/h 14.5 mph /  23.3 km/h 96 % 1.0 in /  25.4 mm
08:01 5.8 °F /  -14.6 °C 5.2 °F /  -14.9 °C 988.0 in /  33453.7 hPa SW 4.7 mph /  7.6 km/h 11.3 mph /  18.2 km/h 96 % 1.0 in /  25.4 mm
08:07 5.8 °F /  -14.6 °C 5.2 °F /  -14.9 °C 988.0 in /  33453.7 hPa SSW 7.9 mph /  12.7 km/h 12.9 mph /  20.8 km/h 96 % 0.8 in /  20.32 mm
08:13 5.8 °F /  -14.6 °C 5.2 °F /  -14.9 °C 988.4 in /  33467.2 hPa WSW 4.7 mph /  7.6 km/h 16.1 mph /  25.9 km/h 96 % 0.8 in /  20.32 mm
08:19 5.8 °F /  -14.6 °C 5.2 °F /  -14.9 °C 988.7 in /  33477.4 hPa SSW 13.0 mph /  20.9 km/h 20.9 mph /  33.6 km/h 96 % 0.5 in /  12.7 mm
08:25 5.8 °F /  -14.6 °C 5.1 °F /  -14.9 °C 988.7 in /  33477.4 hPa SW 11.1 mph /  17.9 km/h 17.7 mph /  28.5 km/h 95 % 0.5 in /  12.7 mm
08:31 5.9 °F /  -14.5 °C 5.2 °F /  -14.9 °C 988.7 in /  33477.4 hPa WSW 11.1 mph /  17.9 km/h 24.1 mph /  38.8 km/h 95 % 0.5 in /  12.7 mm
08:37 6.1 °F /  -14.4 °C 5.4 °F /  -14.8 °C 988.7 in /  33477.4 hPa West 17.7 mph /  28.5 km/h 29.0 mph /  46.7 km/h 95 % 0.3 in /  7.62 mm
08:43 6.1 °F /  -14.4 °C 5.2 °F /  -14.9 °C 989.1 in /  33490.9 hPa WSW 13.0 mph /  20.9 km/h 25.7 mph /  41.4 km/h 94 % 0.3 in /  7.62 mm
08:49 6.1 °F /  -14.4 °C 5.2 °F /  -14.9 °C 989.1 in /  33490.9 hPa WSW 22.7 mph /  36.5 km/h 27.4 mph /  44.1 km/h 94 % 0.3 in /  7.62 mm
08:55 6.2 °F /  -14.3 °C 5.2 °F /  -14.9 °C 989.4 in /  33501.1 hPa SSW 6.4 mph /  10.3 km/h 30.6 mph /  49.2 km/h 93 % 0.3 in /  7.62 mm
09:01 6.3 °F /  -14.3 °C 5.1 °F /  -14.9 °C 989.7 in /  33511.2 hPa WSW 27.4 mph /  44.1 km/h 32.2 mph /  51.8 km/h 92 % 0.0 in /  0 mm
09:07 6.3 °F /  -14.3 °C 4.9 °F /  -15.1 °C 989.7 in /  33511.2 hPa West 13.0 mph /  20.9 km/h 25.7 mph /  41.4 km/h 91 % 0.0 in /  0 mm
09:13 6.3 °F /  -14.3 °C 4.9 °F /  -15.1 °C 990.1 in /  33524.8 hPa WSW 6.4 mph /  10.3 km/h 22.5 mph /  36.2 km/h 91 % 0.0 in /  0 mm
09:19 6.3 °F /  -14.3 °C 4.9 °F /  -15.1 °C 990.1 in /  33524.8 hPa WSW 16.3 mph /  26.2 km/h 25.7 mph /  41.4 km/h 91 % 0.0 in /  0 mm
09:25 6.3 °F /  -14.3 °C 4.8 °F /  -15.1 °C 990.1 in /  33524.8 hPa SW 16.3 mph /  26.2 km/h 24.1 mph /  38.8 km/h 90 % 0.0 in /  0 mm
09:32 6.4 °F /  -14.2 °C 4.9 °F /  -15.1 °C 990.7 in /  33545.1 hPa WSW 7.9 mph /  12.7 km/h 22.5 mph /  36.2 km/h 90 % 0.0 in /  0 mm
09:37 6.3 °F /  -14.3 °C 4.8 °F /  -15.1 °C 990.7 in /  33545.1 hPa SW 11.1 mph /  17.9 km/h 22.5 mph /  36.2 km/h 90 % 0.0 in /  0 mm
09:44 6.3 °F /  -14.3 °C 4.6 °F /  -15.2 °C 990.7 in /  33545.1 hPa SW 17.7 mph /  28.5 km/h 24.1 mph /  38.8 km/h 89 % 0.0 in /  0 mm
09:50 6.3 °F /  -14.3 °C 4.6 °F /  -15.2 °C 991.1 in /  33558.6 hPa WSW 20.9 mph /  33.6 km/h 22.5 mph /  36.2 km/h 89 % 0.0 in /  0 mm
09:56 6.3 °F /  -14.3 °C 4.6 °F /  -15.2 °C 991.1 in /  33558.6 hPa WSW 13.0 mph /  20.9 km/h 30.6 mph /  49.2 km/h 89 % 0.0 in /  0 mm
10:02 6.3 °F /  -14.3 °C 4.5 °F /  -15.3 °C 991.4 in /  33568.8 hPa WSW 13.0 mph /  20.9 km/h 19.3 mph /  31.1 km/h 88 % 0.0 in /  0 mm
10:08 6.3 °F /  -14.3 °C 4.5 °F /  -15.3 °C 991.4 in /  33568.8 hPa SSW 16.3 mph /  26.2 km/h 22.5 mph /  36.2 km/h 88 % 0.0 in /  0 mm
10:14 6.3 °F /  -14.3 °C 4.5 °F /  -15.3 °C 991.4 in /  33568.8 hPa SW 14.3 mph /  23 km/h 24.1 mph /  38.8 km/h 88 % 0.0 in /  0 mm
10:20 6.4 °F /  -14.2 °C 4.4 °F /  -15.3 °C 991.8 in /  33582.3 hPa WSW 16.3 mph /  26.2 km/h 30.6 mph /  49.2 km/h 87 % 0.0 in /  0 mm
10:28 6.6 °F /  -14.1 °C 4.4 °F /  -15.3 °C 991.8 in /  33582.3 hPa SW 9.7 mph /  15.6 km/h 19.3 mph /  31.1 km/h 86 % 0.0 in /  0 mm
10:34 6.7 °F /  -14.1 °C 4.2 °F /  -15.4 °C 992.1 in /  33592.5 hPa WSW 24.1 mph /  38.8 km/h 30.6 mph /  49.2 km/h 84 % 0.0 in /  0 mm
10:40 6.9 °F /  -13.9 °C 4.2 °F /  -15.4 °C 992.4 in /  33602.7 hPa West 20.9 mph /  33.6 km/h 22.5 mph /  36.2 km/h 83 % 0.0 in /  0 mm
10:46 7.1 °F /  -13.8 °C 4.2 °F /  -15.4 °C 992.4 in /  33602.7 hPa WSW 22.7 mph /  36.5 km/h 25.7 mph /  41.4 km/h 82 % 0.0 in /  0 mm
10:52 7.2 °F /  -13.8 °C 4.0 °F /  -15.6 °C 992.4 in /  33602.7 hPa SW 11.1 mph /  17.9 km/h 38.6 mph /  62.1 km/h 80 % 0.0 in /  0 mm
10:58 7.3 °F /  -13.7 °C 3.7 °F /  -15.7 °C 992.4 in /  33602.7 hPa WSW 19.5 mph /  31.4 km/h 30.6 mph /  49.2 km/h 78 % 0.0 in /  0 mm
11:04 7.6 °F /  -13.6 °C 3.6 °F /  -15.8 °C 992.4 in /  33602.7 hPa SW 17.7 mph /  28.5 km/h 33.8 mph /  54.4 km/h 76 % 0.0 in /  0 mm
11:10 7.6 °F /  -13.6 °C 3.5 °F /  -15.8 °C 992.8 in /  33616.2 hPa WSW 28.8 mph /  46.3 km/h 41.8 mph /  67.3 km/h 75 % 0.0 in /  0 mm
11:16 7.6 °F /  -13.6 °C 3.6 °F /  -15.8 °C 992.8 in /  33616.2 hPa SSW 17.7 mph /  28.5 km/h 30.6 mph /  49.2 km/h 76 % 0.0 in /  0 mm
11:22 7.6 °F /  -13.6 °C 3.6 °F /  -15.8 °C 993.1 in /  33626.4 hPa WSW 20.9 mph /  33.6 km/h 32.2 mph /  51.8 km/h 76 % 0.0 in /  0 mm
11:28 7.6 °F /  -13.6 °C 3.6 °F /  -15.8 °C 993.1 in /  33626.4 hPa WSW 17.7 mph /  28.5 km/h 27.4 mph /  44.1 km/h 76 % 0.0 in /  0 mm
11:34 7.5 °F /  -13.6 °C 3.4 °F /  -15.9 °C 993.1 in /  33626.4 hPa SSW 6.4 mph /  10.3 km/h 27.4 mph /  44.1 km/h 75 % 0.0 in /  0 mm
11:40 7.4 °F /  -13.7 °C 3.3 °F /  -15.9 °C 993.1 in /  33626.4 hPa WSW 22.7 mph /  36.5 km/h 24.1 mph /  38.8 km/h 75 % 0.0 in /  0 mm
11:46 7.5 °F /  -13.6 °C 3.0 °F /  -16.1 °C 993.5 in /  33639.9 hPa West 20.9 mph /  33.6 km/h 29.0 mph /  46.7 km/h 73 % 0.0 in /  0 mm
11:52 7.7 °F /  -13.5 °C 3.2 °F /  -16 °C 993.5 in /  33639.9 hPa SW 17.7 mph /  28.5 km/h 30.6 mph /  49.2 km/h 73 % 0.0 in /  0 mm
11:58 7.8 °F /  -13.4 °C 3.1 °F /  -16.1 °C 993.5 in /  33639.9 hPa SW 30.6 mph /  49.2 km/h 32.2 mph /  51.8 km/h 72 % 0.0 in /  0 mm
12:04 7.8 °F /  -13.4 °C 2.3 °F /  -16.5 °C 993.5 in /  33639.9 hPa WSW 30.6 mph /  49.2 km/h 37.0 mph /  59.5 km/h 68 % 0.0 in /  0 mm
12:10 7.9 °F /  -13.4 °C 2.6 °F /  -16.3 °C 993.5 in /  33639.9 hPa West 13.0 mph /  20.9 km/h 33.8 mph /  54.4 km/h 69 % 0.0 in /  0 mm
12:16 8.0 °F /  -13.3 °C 2.7 °F /  -16.3 °C 993.5 in /  33639.9 hPa SW 33.8 mph /  54.4 km/h 33.8 mph /  54.4 km/h 69 % 0.0 in /  0 mm
12:22 8.1 °F /  -13.3 °C 2.3 °F /  -16.5 °C 993.5 in /  33639.9 hPa South 14.3 mph /  23 km/h 49.9 mph /  80.3 km/h 67 % 0.0 in /  0 mm
12:28 8.1 °F /  -13.3 °C 2.5 °F /  -16.4 °C 993.5 in /  33639.9 hPa West 27.4 mph /  44.1 km/h 38.6 mph /  62.1 km/h 68 % 0.0 in /  0 mm
12:34 7.9 °F /  -13.4 °C 2.2 °F /  -16.6 °C 993.8 in /  33650.1 hPa WSW 20.9 mph /  33.6 km/h 38.6 mph /  62.1 km/h 67 % 0.3 in /  7.62 mm
12:40 7.8 °F /  -13.4 °C 2.3 °F /  -16.5 °C 993.8 in /  33650.1 hPa West 30.6 mph /  49.2 km/h 37.0 mph /  59.5 km/h 68 % 0.3 in /  7.62 mm
12:46 7.8 °F /  -13.4 °C 2.5 °F /  -16.4 °C 993.8 in /  33650.1 hPa WSW 13.0 mph /  20.9 km/h 32.2 mph /  51.8 km/h 69 % 0.3 in /  7.62 mm
12:52 8.1 °F /  -13.3 °C 2.8 °F /  -16.2 °C 993.8 in /  33650.1 hPa WSW 9.7 mph /  15.6 km/h 20.9 mph /  33.6 km/h 69 % 0.3 in /  7.62 mm
12:58 8.2 °F /  -13.2 °C 2.4 °F /  -16.4 °C 993.8 in /  33650.1 hPa SW 24.1 mph /  38.8 km/h 35.4 mph /  57 km/h 67 % 0.3 in /  7.62 mm
13:04 8.1 °F /  -13.3 °C 2.1 °F /  -16.6 °C 993.8 in /  33650.1 hPa West 24.1 mph /  38.8 km/h 32.2 mph /  51.8 km/h 66 % 0.3 in /  7.62 mm
13:10 8.2 °F /  -13.2 °C 2.2 °F /  -16.6 °C 993.8 in /  33650.1 hPa West 19.5 mph /  31.4 km/h 35.4 mph /  57 km/h 66 % 0.3 in /  7.62 mm
13:16 8.5 °F /  -13.1 °C 2.3 °F /  -16.5 °C 993.8 in /  33650.1 hPa WSW 27.4 mph /  44.1 km/h 37.0 mph /  59.5 km/h 65 % 0.3 in /  7.62 mm
13:22 8.9 °F /  -12.8 °C 2.2 °F /  -16.6 °C 993.8 in /  33650.1 hPa WNW 25.9 mph /  41.7 km/h 33.8 mph /  54.4 km/h 63 % 0.3 in /  7.62 mm
13:28 9.0 °F /  -12.8 °C 1.6 °F /  -16.9 °C 993.8 in /  33650.1 hPa WSW 19.5 mph /  31.4 km/h 45.1 mph /  72.6 km/h 60 % 0.3 in /  7.62 mm
13:34 8.8 °F /  -12.9 °C 1.7 °F /  -16.8 °C 993.8 in /  33650.1 hPa WSW 20.9 mph /  33.6 km/h 37.0 mph /  59.5 km/h 61 % 0.0 in /  0 mm
13:40 8.7 °F /  -12.9 °C 2.0 °F /  -16.7 °C 994.1 in /  33660.2 hPa WSW 13.0 mph /  20.9 km/h 25.7 mph /  41.4 km/h 63 % 0.0 in /  0 mm
13:46 8.6 °F /  -13 °C 2.2 °F /  -16.6 °C 993.8 in /  33650.1 hPa SW 20.9 mph /  33.6 km/h 33.8 mph /  54.4 km/h 64 % 0.0 in /  0 mm
13:52 8.6 °F /  -13 °C 2.4 °F /  -16.4 °C 993.8 in /  33650.1 hPa SW 11.1 mph /  17.9 km/h 30.6 mph /  49.2 km/h 65 % 0.0 in /  0 mm
13:58 8.7 °F /  -12.9 °C 2.9 °F /  -16.2 °C 994.1 in /  33660.2 hPa SW 16.3 mph /  26.2 km/h 20.9 mph /  33.6 km/h 67 % 0.0 in /  0 mm
14:04 9.1 °F /  -12.7 °C 2.4 °F /  -16.4 °C 993.8 in /  33650.1 hPa WSW 27.4 mph /  44.1 km/h 33.8 mph /  54.4 km/h 63 % 0.0 in /  0 mm
14:10 9.0 °F /  -12.8 °C 1.6 °F /  -16.9 °C 994.1 in /  33660.2 hPa WSW 27.4 mph /  44.1 km/h 33.8 mph /  54.4 km/h 60 % 0.0 in /  0 mm
14:16 9.2 °F /  -12.7 °C 2.1 °F /  -16.6 °C 994.1 in /  33660.2 hPa West 7.9 mph /  12.7 km/h 35.4 mph /  57 km/h 61 % 0.0 in /  0 mm
14:22 9.2 °F /  -12.7 °C 2.3 °F /  -16.5 °C 994.1 in /  33660.2 hPa WSW 32.0 mph /  51.5 km/h 32.2 mph /  51.8 km/h 62 % 0.0 in /  0 mm
14:28 9.1 °F /  -12.7 °C 2.0 °F /  -16.7 °C 994.1 in /  33660.2 hPa WSW 25.9 mph /  41.7 km/h 40.2 mph /  64.7 km/h 61 % 0.0 in /  0 mm
14:34 9.1 °F /  -12.7 °C 2.0 °F /  -16.7 °C 994.1 in /  33660.2 hPa SW 32.0 mph /  51.5 km/h 37.0 mph /  59.5 km/h 61 % 0.0 in /  0 mm
14:40 8.9 °F /  -12.8 °C 1.8 °F /  -16.8 °C 994.1 in /  33660.2 hPa WSW 13.0 mph /  20.9 km/h 38.6 mph /  62.1 km/h 61 % 0.0 in /  0 mm
14:46 8.9 °F /  -12.8 °C 1.8 °F /  -16.8 °C 993.8 in /  33650.1 hPa West 14.3 mph /  23 km/h 35.4 mph /  57 km/h 61 % 0.0 in /  0 mm
14:52 9.1 °F /  -12.7 °C 1.7 °F /  -16.8 °C 993.8 in /  33650.1 hPa SSW 22.7 mph /  36.5 km/h 24.1 mph /  38.8 km/h 60 % 0.0 in /  0 mm
14:58 9.1 °F /  -12.7 °C 2.2 °F /  -16.6 °C 993.8 in /  33650.1 hPa West 27.4 mph /  44.1 km/h 35.4 mph /  57 km/h 62 % 0.0 in /  0 mm
15:04 9.1 °F /  -12.7 °C 2.6 °F /  -16.3 °C 993.8 in /  33650.1 hPa SSW 20.9 mph /  33.6 km/h 27.4 mph /  44.1 km/h 64 % 0.0 in /  0 mm
15:10 9.1 °F /  -12.7 °C 2.4 °F /  -16.4 °C 994.1 in /  33660.2 hPa SW 24.1 mph /  38.8 km/h 30.6 mph /  49.2 km/h 63 % 0.0 in /  0 mm
15:16 9.1 °F /  -12.7 °C 3.1 °F /  -16.1 °C 994.1 in /  33660.2 hPa SSW 22.7 mph /  36.5 km/h 29.0 mph /  46.7 km/h 66 % 0.0 in /  0 mm
15:22 9.0 °F /  -12.8 °C 2.3 °F /  -16.5 °C 994.1 in /  33660.2 hPa West 16.3 mph /  26.2 km/h 22.5 mph /  36.2 km/h 63 % 0.0 in /  0 mm
15:28 8.9 °F /  -12.8 °C 2.5 °F /  -16.4 °C 994.1 in /  33660.2 hPa SW 22.7 mph /  36.5 km/h 29.0 mph /  46.7 km/h 64 % 0.0 in /  0 mm
15:34 9.0 °F /  -12.8 °C 2.1 °F /  -16.6 °C 994.1 in /  33660.2 hPa SW 17.7 mph /  28.5 km/h 35.4 mph /  57 km/h 62 % 0.0 in /  0 mm
15:40 8.7 °F /  -12.9 °C 1.8 °F /  -16.8 °C 994.1 in /  33660.2 hPa WSW 11.1 mph /  17.9 km/h 25.7 mph /  41.4 km/h 62 % 0.0 in /  0 mm
15:46 8.8 °F /  -12.9 °C 1.7 °F /  -16.8 °C 994.1 in /  33660.2 hPa SW 9.7 mph /  15.6 km/h 33.8 mph /  54.4 km/h 61 % 0.0 in /  0 mm
15:52 8.9 °F /  -12.8 °C 1.6 °F /  -16.9 °C 994.5 in /  33673.8 hPa SW 30.6 mph /  49.2 km/h 30.6 mph /  49.2 km/h 60 % 0.0 in /  0 mm
15:58 8.7 °F /  -12.9 °C 0.9 °F /  -17.3 °C 994.5 in /  33673.8 hPa WSW 17.7 mph /  28.5 km/h 32.2 mph /  51.8 km/h 58 % 0.0 in /  0 mm
16:04 8.5 °F /  -13.1 °C 0.9 °F /  -17.3 °C 994.5 in /  33673.8 hPa SW 19.5 mph /  31.4 km/h 38.6 mph /  62.1 km/h 59 % 0.0 in /  0 mm
16:10 8.2 °F /  -13.2 °C 1.4 °F /  -17 °C 994.5 in /  33673.8 hPa SSW 22.7 mph /  36.5 km/h 30.6 mph /  49.2 km/h 62 % 0.0 in /  0 mm
16:16 7.9 °F /  -13.4 °C 0.8 °F /  -17.3 °C 994.5 in /  33673.8 hPa WSW 14.3 mph /  23 km/h 32.2 mph /  51.8 km/h 61 % 0.0 in /  0 mm
16:22 8.2 °F /  -13.2 °C 1.1 °F /  -17.2 °C 994.5 in /  33673.8 hPa WSW 11.1 mph /  17.9 km/h 24.1 mph /  38.8 km/h 61 % 0.0 in /  0 mm
16:28 8.4 °F /  -13.1 °C 1.5 °F /  -16.9 °C 994.5 in /  33673.8 hPa SW 27.4 mph /  44.1 km/h 27.4 mph /  44.1 km/h 62 % 0.0 in /  0 mm
16:34 8.3 °F /  -13.2 °C 1.4 °F /  -17 °C 994.5 in /  33673.8 hPa SW 17.7 mph /  28.5 km/h 30.6 mph /  49.2 km/h 62 % 0.0 in /  0 mm
16:40 8.3 °F /  -13.2 °C 1.4 °F /  -17 °C 994.5 in /  33673.8 hPa SW 7.9 mph /  12.7 km/h 29.0 mph /  46.7 km/h 62 % 0.0 in /  0 mm
16:46 8.3 °F /  -13.2 °C 1.7 °F /  -16.8 °C 994.5 in /  33673.8 hPa SW 13.0 mph /  20.9 km/h 25.7 mph /  41.4 km/h 63 % 0.0 in /  0 mm
16:52 8.3 °F /  -13.2 °C 1.9 °F /  -16.7 °C 994.5 in /  33673.8 hPa SW 9.7 mph /  15.6 km/h 20.9 mph /  33.6 km/h 64 % 0.0 in /  0 mm
16:58 8.3 °F /  -13.2 °C 1.4 °F /  -17 °C 994.5 in /  33673.8 hPa WSW 14.3 mph /  23 km/h 17.7 mph /  28.5 km/h 62 % 0.0 in /  0 mm
17:04 8.1 °F /  -13.3 °C 1.3 °F /  -17.1 °C 994.5 in /  33673.8 hPa WSW 11.1 mph /  17.9 km/h 22.5 mph /  36.2 km/h 62 % 0.0 in /  0 mm
17:10 8.2 °F /  -13.2 °C 0.9 °F /  -17.3 °C 994.5 in /  33673.8 hPa WSW 7.9 mph /  12.7 km/h 19.3 mph /  31.1 km/h 60 % 0.0 in /  0 mm
17:16 8.3 °F /  -13.2 °C 0.8 °F /  -17.3 °C 994.5 in /  33673.8 hPa West 11.1 mph /  17.9 km/h 25.7 mph /  41.4 km/h 59 % 0.0 in /  0 mm
17:22 8.2 °F /  -13.2 °C 1.1 °F /  -17.2 °C 994.5 in /  33673.8 hPa SW 9.7 mph /  15.6 km/h 17.7 mph /  28.5 km/h 61 % 0.0 in /  0 mm
17:28 8.1 °F /  -13.3 °C 0.8 °F /  -17.3 °C 994.5 in /  33673.8 hPa West 9.7 mph /  15.6 km/h 24.1 mph /  38.8 km/h 60 % 0.0 in /  0 mm
17:34 8.0 °F /  -13.3 °C 0.5 °F /  -17.5 °C 994.5 in /  33673.8 hPa WSW 3.2 mph /  5.1 km/h 20.9 mph /  33.6 km/h 59 % 0.0 in /  0 mm
17:40 7.9 °F /  -13.4 °C 0.4 °F /  -17.6 °C 994.5 in /  33673.8 hPa SW 3.2 mph /  5.1 km/h 9.7 mph /  15.6 km/h 59 % 0.0 in /  0 mm
17:46 7.9 °F /  -13.4 °C 0.4 °F /  -17.6 °C 994.5 in /  33673.8 hPa SW 4.7 mph /  7.6 km/h 12.9 mph /  20.8 km/h 59 % 0.0 in /  0 mm
17:52 7.7 °F /  -13.5 °C 0.7 °F /  -17.4 °C 994.5 in /  33673.8 hPa SSW 6.4 mph /  10.3 km/h 9.7 mph /  15.6 km/h 61 % 0.0 in /  0 mm
17:58 7.6 °F /  -13.6 °C 0.3 °F /  -17.6 °C 994.5 in /  33673.8 hPa SW 4.7 mph /  7.6 km/h 9.7 mph /  15.6 km/h 60 % 0.0 in /  0 mm
18:04 7.4 °F /  -13.7 °C 0.1 °F /  -17.7 °C 994.5 in /  33673.8 hPa SW 4.7 mph /  7.6 km/h 8.0 mph /  12.9 km/h 60 % 0.0 in /  0 mm
18:10 7.4 °F /  -13.7 °C 0.1 °F /  -17.7 °C 994.5 in /  33673.8 hPa WSW 3.2 mph /  5.1 km/h 6.4 mph /  10.3 km/h 60 % 0.0 in /  0 mm
18:16 7.3 °F /  -13.7 °C 0.0 °F /  -17.8 °C 994.5 in /  33673.8 hPa SW 1.4 mph /  2.3 km/h 3.2 mph /  5.1 km/h 60 % 0.0 in /  0 mm
18:22 7.2 °F /  -13.8 °C 0.0 °F /  -17.8 °C 994.5 in /  33673.8 hPa Calm   6.4 mph /  10.3 km/h 60 % 0.0 in /  0 mm
18:28 7.1 °F /  -13.8 °C 0.1 °F /  -17.7 °C 994.5 in /  33673.8 hPa SW 1.4 mph /  2.3 km/h 3.2 mph /  5.1 km/h 61 % 0.0 in /  0 mm
18:34 6.8 °F /  -14 °C 0.2 °F /  -17.7 °C 994.5 in /  33673.8 hPa SSW 1.4 mph /  2.3 km/h 1.6 mph /  2.6 km/h 63 % 0.0 in /  0 mm
18:40 6.4 °F /  -14.2 °C 0.3 °F /  -17.6 °C 994.5 in /  33673.8 hPa Calm   1.6 mph /  2.6 km/h 65 % 0.0 in /  0 mm
18:47 6.0 °F /  -14.4 °C 0.3 °F /  -17.6 °C 994.5 in /  33673.8 hPa Calm   1.6 mph /  2.6 km/h 67 % 0.0 in /  0 mm
18:53 5.7 °F /  -14.6 °C 0.1 °F /  -17.7 °C 994.5 in /  33673.8 hPa Calm     67 % 0.0 in /  0 mm
18:59 5.4 °F /  -14.8 °C 0.4 °F /  -17.6 °C 994.5 in /  33673.8 hPa Calm     70 % 0.0 in /  0 mm
19:05 5.2 °F /  -14.9 °C 0.6 °F /  -17.4 °C 994.8 in /  33683.9 hPa Calm     72 % 0.0 in /  0 mm
19:11 5.1 °F /  -14.9 °C 0.5 °F /  -17.5 °C 994.8 in /  33683.9 hPa Calm     72 % 0.0 in /  0 mm
19:17 4.8 °F /  -15.1 °C 0.2 °F /  -17.7 °C 994.8 in /  33683.9 hPa Calm     72 % 0.0 in /  0 mm
19:23 4.4 °F /  -15.3 °C 0.4 °F /  -17.6 °C 994.8 in /  33683.9 hPa Calm     75 % 0.0 in /  0 mm
19:29 4.3 °F /  -15.4 °C 0.4 °F /  -17.6 °C 995.1 in /  33694.1 hPa Calm   1.6 mph /  2.6 km/h 76 % 0.0 in /  0 mm
19:35 4.2 °F /  -15.4 °C 0.3 °F /  -17.6 °C 994.8 in /  33683.9 hPa Calm   1.6 mph /  2.6 km/h 76 % 0.0 in /  0 mm
19:41 4.3 °F /  -15.4 °C 0.4 °F /  -17.6 °C 994.8 in /  33683.9 hPa Calm     76 % 0.0 in /  0 mm
19:47 4.3 °F /  -15.4 °C 0.3 °F /  -17.6 °C 995.1 in /  33694.1 hPa Calm     75 % 0.0 in /  0 mm
19:53 3.5 °F /  -15.8 °C -0.5 °F /  -18.1 °C 994.8 in /  33683.9 hPa Calm   3.2 mph /  5.1 km/h 75 % 0.0 in /  0 mm
19:59 3.2 °F /  -16 °C -0.1 °F /  -17.8 °C 994.8 in /  33683.9 hPa North 1.4 mph /  2.3 km/h 1.6 mph /  2.6 km/h 79 % 0.0 in /  0 mm
20:05 3.2 °F /  -16 °C -0.3 °F /  -17.9 °C 994.8 in /  33683.9 hPa NNE 1.4 mph /  2.3 km/h 1.6 mph /  2.6 km/h 78 % 0.0 in /  0 mm
20:11 3.2 °F /  -16 °C -0.1 °F /  -17.8 °C 994.8 in /  33683.9 hPa Calm   1.6 mph /  2.6 km/h 79 % 0.0 in /  0 mm
20:17 2.8 °F /  -16.2 °C -0.5 °F /  -18.1 °C 994.8 in /  33683.9 hPa NNW 1.4 mph /  2.3 km/h 1.6 mph /  2.6 km/h 79 % 0.0 in /  0 mm
20:23 2.7 °F /  -16.3 °C -0.4 °F /  -18 °C 994.8 in /  33683.9 hPa Calm     80 % 0.0 in /  0 mm
20:29 2.7 °F /  -16.3 °C -0.4 °F /  -18 °C 994.8 in /  33683.9 hPa Calm     80 % 0.0 in /  0 mm
20:35 2.7 °F /  -16.3 °C -0.2 °F /  -17.9 °C 994.5 in /  33673.8 hPa North 1.4 mph /  2.3 km/h 1.6 mph /  2.6 km/h 81 % 0.0 in /  0 mm
20:42 2.4 °F /  -16.4 °C -0.5 °F /  -18.1 °C 994.5 in /  33673.8 hPa North 1.4 mph /  2.3 km/h 1.6 mph /  2.6 km/h 81 % 0.0 in /  0 mm
20:48 2.2 °F /  -16.6 °C -0.6 °F /  -18.1 °C 994.5 in /  33673.8 hPa North 1.4 mph /  2.3 km/h 3.2 mph /  5.1 km/h 82 % 0.0 in /  0 mm
20:54 2.1 °F /  -16.6 °C -0.8 °F /  -18.2 °C 994.5 in /  33673.8 hPa Calm   1.6 mph /  2.6 km/h 81 % 0.0 in /  0 mm
21:00 1.9 °F /  -16.7 °C -0.8 °F /  -18.2 °C 994.5 in /  33673.8 hPa NNW 1.4 mph /  2.3 km/h 1.6 mph /  2.6 km/h 82 % 0.0 in /  0 mm
21:06 1.7 °F /  -16.8 °C -0.9 °F /  -18.3 °C 994.1 in /  33660.2 hPa NNW 1.4 mph /  2.3 km/h 3.2 mph /  5.1 km/h 83 % 0.0 in /  0 mm
21:12 1.7 °F /  -16.8 °C -0.9 °F /  -18.3 °C 994.1 in /  33660.2 hPa Calm   1.6 mph /  2.6 km/h 83 % 0.0 in /  0 mm
21:18 1.7 °F /  -16.8 °C -0.7 °F /  -18.2 °C 994.1 in /  33660.2 hPa NNW 1.4 mph /  2.3 km/h 1.6 mph /  2.6 km/h 84 % 0.0 in /  0 mm
21:24 1.7 °F /  -16.8 °C -0.7 °F /  -18.2 °C 994.1 in /  33660.2 hPa Calm   1.6 mph /  2.6 km/h 84 % 0.0 in /  0 mm
21:30 1.9 °F /  -16.7 °C -0.7 °F /  -18.2 °C 994.1 in /  33660.2 hPa Calm   1.6 mph /  2.6 km/h 83 % 0.0 in /  0 mm
21:36 2.2 °F /  -16.6 °C -0.6 °F /  -18.1 °C 994.1 in /  33660.2 hPa Calm   1.6 mph /  2.6 km/h 82 % 0.0 in /  0 mm
21:42 2.2 °F /  -16.6 °C -0.7 °F /  -18.2 °C 994.1 in /  33660.2 hPa Calm     81 % 0.0 in /  0 mm
21:48 2.1 °F /  -16.6 °C -0.7 °F /  -18.2 °C 994.1 in /  33660.2 hPa NNE 1.4 mph /  2.3 km/h 3.2 mph /  5.1 km/h 82 % 0.0 in /  0 mm
21:54 2.1 °F /  -16.6 °C -0.8 °F /  -18.2 °C 994.1 in /  33660.2 hPa Calm   3.2 mph /  5.1 km/h 81 % 0.0 in /  0 mm
22:00 1.9 °F /  -16.7 °C -1.0 °F /  -18.3 °C 994.1 in /  33660.2 hPa Calm   1.6 mph /  2.6 km/h 81 % 0.0 in /  0 mm
22:06 1.8 °F /  -16.8 °C -0.8 °F /  -18.2 °C 994.1 in /  33660.2 hPa NNE 3.2 mph /  5.1 km/h 3.2 mph /  5.1 km/h 83 % 0.0 in /  0 mm
22:12 2.0 °F /  -16.7 °C -0.9 °F /  -18.3 °C 994.1 in /  33660.2 hPa Calm   1.6 mph /  2.6 km/h 81 % 0.0 in /  0 mm
22:18 2.0 °F /  -16.7 °C -0.9 °F /  -18.3 °C 994.1 in /  33660.2 hPa North 1.4 mph /  2.3 km/h 1.6 mph /  2.6 km/h 81 % 0.0 in /  0 mm
22:24 1.9 °F /  -16.7 °C -1.0 °F /  -18.3 °C 994.1 in /  33660.2 hPa North 1.4 mph /  2.3 km/h 3.2 mph /  5.1 km/h 81 % 0.0 in /  0 mm
22:30 1.8 °F /  -16.8 °C -1.1 °F /  -18.4 °C 993.8 in /  33650.1 hPa Calm   1.6 mph /  2.6 km/h 81 % 0.0 in /  0 mm
22:36 1.7 °F /  -16.8 °C -1.2 °F /  -18.4 °C 993.8 in /  33650.1 hPa Calm   1.6 mph /  2.6 km/h 81 % 0.0 in /  0 mm
22:42 1.6 °F /  -16.9 °C -1.3 °F /  -18.5 °C 993.8 in /  33650.1 hPa NNE 1.4 mph /  2.3 km/h 1.6 mph /  2.6 km/h 81 % 0.0 in /  0 mm
22:48 1.6 °F /  -16.9 °C -1.1 °F /  -18.4 °C 993.8 in /  33650.1 hPa Calm   3.2 mph /  5.1 km/h 82 % 0.0 in /  0 mm
22:54 1.5 °F /  -16.9 °C -1.2 °F /  -18.4 °C 993.8 in /  33650.1 hPa North 1.4 mph /  2.3 km/h 3.2 mph /  5.1 km/h 82 % 0.0 in /  0 mm
23:00 1.4 °F /  -17 °C -1.3 °F /  -18.5 °C 993.8 in /  33650.1 hPa NNE 1.4 mph /  2.3 km/h 3.2 mph /  5.1 km/h 82 % 0.0 in /  0 mm
23:06 1.5 °F /  -16.9 °C -1.2 °F /  -18.4 °C 993.8 in /  33650.1 hPa Calm   3.2 mph /  5.1 km/h 82 % 0.0 in /  0 mm
23:12 1.7 °F /  -16.8 °C -1.2 °F /  -18.4 °C 993.8 in /  33650.1 hPa Calm   1.6 mph /  2.6 km/h 81 % 0.0 in /  0 mm
23:18 1.7 °F /  -16.8 °C -1.4 °F /  -18.6 °C 993.5 in /  33639.9 hPa NNE 1.4 mph /  2.3 km/h 1.6 mph /  2.6 km/h 80 % 0.0 in /  0 mm
23:24 1.6 °F /  -16.9 °C -1.3 °F /  -18.5 °C 993.5 in /  33639.9 hPa Calm   3.2 mph /  5.1 km/h 81 % 0.0 in /  0 mm
23:30 1.6 °F /  -16.9 °C -1.3 °F /  -18.5 °C 993.5 in /  33639.9 hPa NE 1.4 mph /  2.3 km/h 3.2 mph /  5.1 km/h 81 % 0.0 in /  0 mm
23:36 1.6 °F /  -16.9 °C -1.5 °F /  -18.6 °C 993.5 in /  33639.9 hPa Calm   1.6 mph /  2.6 km/h 80 % 0.0 in /  0 mm
23:42 1.6 °F /  -16.9 °C -1.5 °F /  -18.6 °C 993.5 in /  33639.9 hPa Calm     80 % 0.0 in /  0 mm
23:48 1.6 °F /  -16.9 °C -1.5 °F /  -18.6 °C 993.5 in /  33639.9 hPa NE 1.4 mph /  2.3 km/h 3.2 mph /  5.1 km/h 80 % 0.0 in /  0 mm
23:54 1.7 °F /  -16.8 °C -1.6 °F /  -18.7 °C 993.5 in /  33639.9 hPa Calm   1.6 mph /  2.6 km/h 79 % 0.0 in /  0 mm
Meteo18
Compliments of Weather Underground - 4 mb

Script developed by  Jim McMurry - jmcmurry@mwt.net Adapted for the template by  Wim van der Kuil - Leuven-Template.eu

You find our weather info also at:

European Weather Network

Weather Underground

Equipment we use:

Weather-station
Davis Vue

Weather-program
Meteobridge

Weather-server
Raspberry PI 2 B+

Provider
1 and 1

Davis Vue

Meteobridge

Raspberry PI 2 B+

1 and 1